sensor_id;sensor_type;location;lat;lon;timestamp;pressure;altitude;pressure_sealevel;temperature;humidity
69060;BME280;56135;37.534;-122.308;2022-09-20T00:01:21;100756.44;;;20.66;61.06
69060;BME280;56135;37.534;-122.308;2022-09-20T00:03:54;100756.69;;;20.61;61.11
69060;BME280;56135;37.534;-122.308;2022-09-20T00:06:23;100746.56;;;20.50;61.09
69060;BME280;56135;37.534;-122.308;2022-09-20T00:08:50;100761.09;;;20.46;61.44
69060;BME280;56135;37.534;-122.308;2022-09-20T00:11:22;100761.16;;;20.45;61.60
69060;BME280;56135;37.534;-122.308;2022-09-20T00:13:51;100759.66;;;20.39;61.59
69060;BME280;56135;37.534;-122.308;2022-09-20T00:16:24;100751.00;;;20.34;61.90
69060;BME280;56135;37.534;-122.308;2022-09-20T00:18:52;100761.72;;;20.34;61.34
69060;BME280;56135;37.534;-122.308;2022-09-20T00:21:23;100755.66;;;20.30;61.68
69060;BME280;56135;37.534;-122.308;2022-09-20T00:23:50;100764.19;;;20.21;63.31
69060;BME280;56135;37.534;-122.308;2022-09-20T00:26:17;100759.00;;;20.18;62.55
69060;BME280;56135;37.534;-122.308;2022-09-20T00:28:44;100763.28;;;20.05;63.47
69060;BME280;56135;37.534;-122.308;2022-09-20T00:31:12;100757.28;;;19.99;63.15
69060;BME280;56135;37.534;-122.308;2022-09-20T00:33:38;100761.25;;;19.92;62.94
69060;BME280;56135;37.534;-122.308;2022-09-20T00:36:23;100766.28;;;19.81;64.18
69060;BME280;56135;37.534;-122.308;2022-09-20T00:38:54;100766.41;;;19.78;64.65
69060;BME280;56135;37.534;-122.308;2022-09-20T00:41:20;100768.44;;;19.73;64.39
69060;BME280;56135;37.534;-122.308;2022-09-20T00:43:46;100767.66;;;19.71;63.77
69060;BME280;56135;37.534;-122.308;2022-09-20T00:46:34;100765.13;;;19.67;63.66
69060;BME280;56135;37.534;-122.308;2022-09-20T00:49:22;100771.75;;;19.60;63.88
69060;BME280;56135;37.534;-122.308;2022-09-20T00:51:59;100781.03;;;19.53;65.59
69060;BME280;56135;37.534;-122.308;2022-09-20T00:54:27;100782.28;;;19.46;65.54
69060;BME280;56135;37.534;-122.308;2022-09-20T00:56:54;100788.66;;;19.43;65.70
69060;BME280;56135;37.534;-122.308;2022-09-20T00:59:28;100779.19;;;19.36;64.99
69060;BME280;56135;37.534;-122.308;2022-09-20T01:02:00;100776.75;;;19.31;65.44
69060;BME280;56135;37.534;-122.308;2022-09-20T01:04:27;100782.31;;;19.27;65.70
69060;BME280;56135;37.534;-122.308;2022-09-20T01:06:59;100777.34;;;19.19;65.98
69060;BME280;56135;37.534;-122.308;2022-09-20T01:09:27;100779.44;;;19.12;66.13
69060;BME280;56135;37.534;-122.308;2022-09-20T01:11:55;100792.25;;;19.06;66.19
69060;BME280;56135;37.534;-122.308;2022-09-20T01:14:24;100784.66;;;18.96;66.13
69060;BME280;56135;37.534;-122.308;2022-09-20T01:16:53;100780.72;;;18.84;66.41
69060;BME280;56135;37.534;-122.308;2022-09-20T01:22:22;100794.91;;;18.67;68.36
69060;BME280;56135;37.534;-122.308;2022-09-20T01:25:17;100790.00;;;18.57;69.08
69060;BME280;56135;37.534;-122.308;2022-09-20T01:27:53;100797.53;;;18.48;69.57
69060;BME280;56135;37.534;-122.308;2022-09-20T01:30:21;100795.94;;;18.44;69.67
69060;BME280;56135;37.534;-122.308;2022-09-20T01:35:28;100790.13;;;18.34;69.78
69060;BME280;56135;37.534;-122.308;2022-09-20T01:38:03;100787.72;;;18.28;70.02
69060;BME280;56135;37.534;-122.308;2022-09-20T01:46:32;100797.06;;;18.18;72.36
69060;BME280;56135;37.534;-122.308;2022-09-20T01:52:35;100797.28;;;18.13;72.88
69060;BME280;56135;37.534;-122.308;2022-09-20T02:00:55;100808.63;;;17.98;72.27
69060;BME280;56135;37.534;-122.308;2022-09-20T02:04:04;100800.84;;;17.93;72.12
69060;BME280;56135;37.534;-122.308;2022-09-20T02:10:18;100812.13;;;17.78;72.64
69060;BME280;56135;37.534;-122.308;2022-09-20T02:20:57;100802.19;;;17.37;76.14
69060;BME280;56135;37.534;-122.308;2022-09-20T02:31:43;100807.91;;;17.06;80.23
69060;BME280;56135;37.534;-122.308;2022-09-20T02:40:13;100821.81;;;16.90;82.01
69060;BME280;56135;37.534;-122.308;2022-09-20T02:43:01;100823.81;;;16.83;82.57
69060;BME280;56135;37.534;-122.308;2022-09-20T02:45:55;100835.59;;;16.78;82.97
69060;BME280;56135;37.534;-122.308;2022-09-20T02:48:33;100837.38;;;16.77;82.90
69060;BME280;56135;37.534;-122.308;2022-09-20T02:51:32;100838.38;;;16.75;83.95
69060;BME280;56135;37.534;-122.308;2022-09-20T02:54:14;100843.81;;;16.72;84.05
69060;BME280;56135;37.534;-122.308;2022-09-20T03:05:10;100846.97;;;16.58;85.68
69060;BME280;56135;37.534;-122.308;2022-09-20T03:10:49;100857.88;;;16.51;88.16
69060;BME280;56135;37.534;-122.308;2022-09-20T03:14:19;100857.13;;;16.48;88.30
69060;BME280;56135;37.534;-122.308;2022-09-20T03:19:42;100875.13;;;16.41;89.04
69060;BME280;56135;37.534;-122.308;2022-09-20T03:39:23;100934.16;;;16.04;92.48
69060;BME280;56135;37.534;-122.308;2022-09-20T03:47:48;100936.09;;;15.98;92.89
69060;BME280;56135;37.534;-122.308;2022-09-20T03:51:24;100939.56;;;16.00;92.06
69060;BME280;56135;37.534;-122.308;2022-09-20T03:53:56;100944.03;;;16.00;92.40
69060;BME280;56135;37.534;-122.308;2022-09-20T04:02:11;100950.22;;;16.00;88.97
69060;BME280;56135;37.534;-122.308;2022-09-20T04:15:45;100969.91;;;15.66;89.13
69060;BME280;56135;37.534;-122.308;2022-09-20T04:18:47;100973.78;;;15.56;90.20
69060;BME280;56135;37.534;-122.308;2022-09-20T04:24:18;100981.34;;;15.40;89.50
69060;BME280;56135;37.534;-122.308;2022-09-20T04:27:16;100985.13;;;15.31;90.12
69060;BME280;56135;37.534;-122.308;2022-09-20T04:30:18;100980.00;;;15.24;89.45
69060;BME280;56135;37.534;-122.308;2022-09-20T04:32:55;100984.63;;;15.17;89.71
69060;BME280;56135;37.534;-122.308;2022-09-20T04:35:54;100986.56;;;15.12;89.57
69060;BME280;56135;37.534;-122.308;2022-09-20T04:38:49;100985.00;;;15.05;89.63
69060;BME280;56135;37.534;-122.308;2022-09-20T04:41:28;100995.78;;;14.98;89.12
69060;BME280;56135;37.534;-122.308;2022-09-20T04:45:04;101002.22;;;14.91;91.23
69060;BME280;56135;37.534;-122.308;2022-09-20T04:52:53;101006.06;;;14.79;90.59
69060;BME280;56135;37.534;-122.308;2022-09-20T05:07:12;101018.94;;;14.59;93.19
69060;BME280;56135;37.534;-122.308;2022-09-20T05:10:10;101020.03;;;14.51;93.14
69060;BME280;56135;37.534;-122.308;2022-09-20T05:16:01;101023.06;;;14.36;94.44
69060;BME280;56135;37.534;-122.308;2022-09-20T05:34:56;101041.22;;;13.76;100.00
69060;BME280;56135;37.534;-122.308;2022-09-20T05:41:06;101042.47;;;13.60;100.00
69060;BME280;56135;37.534;-122.308;2022-09-20T05:54:32;101047.41;;;13.31;100.00
69060;BME280;56135;37.534;-122.308;2022-09-20T06:00:13;101049.47;;;13.17;100.00
69060;BME280;56135;37.534;-122.308;2022-09-20T06:11:17;101056.19;;;12.87;100.00
69060;BME280;56135;37.534;-122.308;2022-09-20T06:20:09;101053.06;;;12.63;100.00
69060;BME280;56135;37.534;-122.308;2022-09-20T06:22:47;101059.31;;;12.57;100.00
69060;BME280;56135;37.534;-122.308;2022-09-20T06:25:22;101063.81;;;12.54;100.00
69060;BME280;56135;37.534;-122.308;2022-09-20T06:28:17;101070.06;;;12.49;100.00
69060;BME280;56135;37.534;-122.308;2022-09-20T06:30:52;101066.63;;;12.43;100.00
69060;BME280;56135;37.534;-122.308;2022-09-20T06:33:20;101072.88;;;12.37;100.00
69060;BME280;56135;37.534;-122.308;2022-09-20T06:41:52;101065.91;;;12.31;100.00
69060;BME280;56135;37.534;-122.308;2022-09-20T06:44:18;101073.00;;;12.28;100.00
69060;BME280;56135;37.534;-122.308;2022-09-20T06:46:44;101077.44;;;12.27;100.00
69060;BME280;56135;37.534;-122.308;2022-09-20T06:49:10;101067.75;;;12.25;100.00
69060;BME280;56135;37.534;-122.308;2022-09-20T06:51:37;101066.91;;;12.24;100.00
69060;BME280;56135;37.534;-122.308;2022-09-20T06:54:06;101071.34;;;12.21;100.00
69060;BME280;56135;37.534;-122.308;2022-09-20T06:56:36;101075.78;;;12.18;100.00
69060;BME280;56135;37.534;-122.308;2022-09-20T06:59:03;101071.41;;;12.17;100.00
69060;BME280;56135;37.534;-122.308;2022-09-20T07:01:35;101074.97;;;12.15;100.00
69060;BME280;56135;37.534;-122.308;2022-09-20T07:04:02;101075.00;;;12.12;100.00
69060;BME280;56135;37.534;-122.308;2022-09-20T07:06:28;101071.50;;;12.10;100.00
69060;BME280;56135;37.534;-122.308;2022-09-20T07:08:54;101078.63;;;12.06;100.00
69060;BME280;56135;37.534;-122.308;2022-09-20T07:11:21;101083.97;;;12.03;100.00
69060;BME280;56135;37.534;-122.308;2022-09-20T07:13:53;101095.44;;;12.02;100.00
69060;BME280;56135;37.534;-122.308;2022-09-20T07:16:20;101096.19;;;12.12;100.00
69060;BME280;56135;37.534;-122.308;2022-09-20T07:18:47;101094.44;;;12.09;100.00
69060;BME280;56135;37.534;-122.308;2022-09-20T07:21:15;101094.50;;;12.06;100.00
69060;BME280;56135;37.534;-122.308;2022-09-20T07:23:41;101098.06;;;12.04;100.00
69060;BME280;56135;37.534;-122.308;2022-09-20T07:26:22;101098.09;;;12.02;100.00
69060;BME280;56135;37.534;-122.308;2022-09-20T07:28:50;101099.91;;;11.98;100.00
69060;BME280;56135;37.534;-122.308;2022-09-20T07:31:20;101100.81;;;11.94;100.00
69060;BME280;56135;37.534;-122.308;2022-09-20T07:33:47;101099.09;;;11.90;100.00
69060;BME280;56135;37.534;-122.308;2022-09-20T07:36:14;101093.84;;;11.87;100.00
69060;BME280;56135;37.534;-122.308;2022-09-20T07:38:42;101098.31;;;11.82;100.00
69060;BME280;56135;37.534;-122.308;2022-09-20T07:41:11;101097.50;;;11.77;100.00
69060;BME280;56135;37.534;-122.308;2022-09-20T07:43:37;101101.09;;;11.71;100.00
69060;BME280;56135;37.534;-122.308;2022-09-20T07:46:04;101097.59;;;11.67;100.00
69060;BME280;56135;37.534;-122.308;2022-09-20T07:48:33;101096.78;;;11.62;100.00
69060;BME280;56135;37.534;-122.308;2022-09-20T07:51:11;101094.19;;;11.56;100.00
69060;BME280;56135;37.534;-122.308;2022-09-20T07:53:38;101096.00;;;11.54;100.00
69060;BME280;56135;37.534;-122.308;2022-09-20T07:56:11;101093.38;;;11.49;100.00
69060;BME280;56135;37.534;-122.308;2022-09-20T07:58:39;101097.00;;;11.42;100.00
69060;BME280;56135;37.534;-122.308;2022-09-20T08:01:08;101097.94;;;11.38;100.00
69060;BME280;56135;37.534;-122.308;2022-09-20T08:03:35;101096.19;;;11.35;100.00
69060;BME280;56135;37.534;-122.308;2022-09-20T08:06:09;101094.47;;;11.33;100.00
69060;BME280;56135;37.534;-122.308;2022-09-20T08:08:38;101089.19;;;11.30;100.00
69060;BME280;56135;37.534;-122.308;2022-09-20T08:11:10;101092.75;;;11.29;100.00
69060;BME280;56135;37.534;-122.308;2022-09-20T08:13:41;101098.03;;;11.29;100.00
69060;BME280;56135;37.534;-122.308;2022-09-20T08:16:10;101083.03;;;11.28;100.00
69060;BME280;56135;37.534;-122.308;2022-09-20T08:18:36;101088.31;;;11.29;100.00
69060;BME280;56135;37.534;-122.308;2022-09-20T08:21:07;101085.69;;;11.28;100.00
69060;BME280;56135;37.534;-122.308;2022-09-20T08:23:35;101097.13;;;11.30;100.00
69060;BME280;56135;37.534;-122.308;2022-09-20T08:26:02;101097.13;;;11.30;100.00
69060;BME280;56135;37.534;-122.308;2022-09-20T08:28:30;101103.28;;;11.30;100.00
69060;BME280;56135;37.534;-122.308;2022-09-20T08:31:04;101100.53;;;11.41;100.00
69060;BME280;56135;37.534;-122.308;2022-09-20T08:33:31;101100.53;;;11.41;100.00
69060;BME280;56135;37.534;-122.308;2022-09-20T08:35:58;101103.22;;;11.38;100.00
69060;BME280;56135;37.534;-122.308;2022-09-20T08:38:25;101108.53;;;11.37;100.00
69060;BME280;56135;37.534;-122.308;2022-09-20T08:41:04;101107.63;;;11.36;100.00
69060;BME280;56135;37.534;-122.308;2022-09-20T08:43:38;101099.72;;;11.34;100.00
69060;BME280;56135;37.534;-122.308;2022-09-20T08:46:11;101105.91;;;11.32;100.00
69060;BME280;56135;37.534;-122.308;2022-09-20T08:48:59;101103.28;;;11.30;100.00
69060;BME280;56135;37.534;-122.308;2022-09-20T08:51:29;101103.34;;;11.27;100.00
69060;BME280;56135;37.534;-122.308;2022-09-20T08:53:57;101107.72;;;11.27;100.00
69060;BME280;56135;37.534;-122.308;2022-09-20T08:56:24;101102.47;;;11.25;100.00
69060;BME280;56135;37.534;-122.308;2022-09-20T08:58:53;101105.16;;;11.22;100.00
69060;BME280;56135;37.534;-122.308;2022-09-20T09:01:20;101104.25;;;11.22;100.00
69060;BME280;56135;37.534;-122.308;2022-09-20T09:03:49;101106.06;;;11.18;100.00
69060;BME280;56135;37.534;-122.308;2022-09-20T09:06:19;101111.38;;;11.18;100.00
69060;BME280;56135;37.534;-122.308;2022-09-20T09:08:46;101116.63;;;11.16;100.00
69060;BME280;56135;37.534;-122.308;2022-09-20T09:11:18;101121.94;;;11.16;100.00
69060;BME280;56135;37.534;-122.308;2022-09-20T09:16:49;101112.28;;;11.15;100.00
69060;BME280;56135;37.534;-122.308;2022-09-20T09:19:42;101110.50;;;11.14;100.00
69060;BME280;56135;37.534;-122.308;2022-09-20T09:22:09;101108.72;;;11.15;100.00
69060;BME280;56135;37.534;-122.308;2022-09-20T09:24:35;101114.06;;;11.12;100.00
69060;BME280;56135;37.534;-122.308;2022-09-20T09:27:07;101114.03;;;11.13;100.00
69060;BME280;56135;37.534;-122.308;2022-09-20T09:29:51;101111.44;;;11.10;100.00
69060;BME280;56135;37.534;-122.308;2022-09-20T09:32:30;101109.66;;;11.11;100.00
69060;BME280;56135;37.534;-122.308;2022-09-20T09:35:27;101111.44;;;11.09;100.00
69060;BME280;56135;37.534;-122.308;2022-09-20T09:37:56;101112.34;;;11.08;100.00
69060;BME280;56135;37.534;-122.308;2022-09-20T09:40:24;101122.91;;;11.08;100.00
69060;BME280;56135;37.534;-122.308;2022-09-20T09:42:59;101115.91;;;11.04;100.00
69060;BME280;56135;37.534;-122.308;2022-09-20T09:45:36;101113.28;;;10.99;100.00
69060;BME280;56135;37.534;-122.308;2022-09-20T09:48:26;101115.06;;;10.94;100.00
69060;BME280;56135;37.534;-122.308;2022-09-20T09:51:08;101108.97;;;10.90;100.00
69060;BME280;56135;37.534;-122.308;2022-09-20T09:53:35;101110.72;;;10.90;100.00
69060;BME280;56135;37.534;-122.308;2022-09-20T10:04:16;101108.16;;;10.79;100.00
69060;BME280;56135;37.534;-122.308;2022-09-20T10:07:03;101105.53;;;10.77;100.00
69060;BME280;56135;37.534;-122.308;2022-09-20T10:31:45;101101.28;;;10.58;100.00
69060;BME280;56135;37.534;-122.308;2022-09-20T10:37:00;101096.88;;;10.55;100.00
69060;BME280;56135;37.534;-122.308;2022-09-20T10:39:34;101096.88;;;10.55;100.00
69060;BME280;56135;37.534;-122.308;2022-09-20T10:48:11;101094.28;;;10.49;100.00
69060;BME280;56135;37.534;-122.308;2022-09-20T10:51:23;101095.19;;;10.45;100.00
69060;BME280;56135;37.534;-122.308;2022-09-20T10:54:20;101106.66;;;10.42;100.00
69060;BME280;56135;37.534;-122.308;2022-09-20T10:56:53;101105.78;;;10.42;100.00
69060;BME280;56135;37.534;-122.308;2022-09-20T10:59:42;101111.97;;;10.39;100.00
69060;BME280;56135;37.534;-122.308;2022-09-20T11:08:12;101103.16;;;10.35;100.00
69060;BME280;56135;37.534;-122.308;2022-09-20T11:10:44;101114.59;;;10.34;100.00
69060;BME280;56135;37.534;-122.308;2022-09-20T11:13:26;101125.16;;;10.33;100.00
69060;BME280;56135;37.534;-122.308;2022-09-20T11:16:17;101114.59;;;10.31;100.00
69060;BME280;56135;37.534;-122.308;2022-09-20T11:18:55;101120.78;;;10.29;100.00
69060;BME280;56135;37.534;-122.308;2022-09-20T11:21:42;101113.75;;;10.25;100.00
69060;BME280;56135;37.534;-122.308;2022-09-20T11:27:14;101114.69;;;10.19;100.00
69060;BME280;56135;37.534;-122.308;2022-09-20T11:30:04;101118.19;;;10.18;100.00
69060;BME280;56135;37.534;-122.308;2022-09-20T11:33:00;101117.34;;;10.14;100.00
69060;BME280;56135;37.534;-122.308;2022-09-20T11:35:35;101116.50;;;10.11;100.00
69060;BME280;56135;37.534;-122.308;2022-09-20T11:38:29;101112.97;;;10.09;100.00
69060;BME280;56135;37.534;-122.308;2022-09-20T11:41:10;101113.84;;;10.08;100.00
69060;BME280;56135;37.534;-122.308;2022-09-20T11:43:41;101112.97;;;10.07;100.00
69060;BME280;56135;37.534;-122.308;2022-09-20T11:46:12;101113.00;;;10.06;100.00
69060;BME280;56135;37.534;-122.308;2022-09-20T11:48:50;101113.88;;;10.05;100.00
69060;BME280;56135;37.534;-122.308;2022-09-20T11:56:31;101115.63;;;10.02;100.00
69060;BME280;56135;37.534;-122.308;2022-09-20T11:59:06;101114.75;;;10.02;100.00
69060;BME280;56135;37.534;-122.308;2022-09-20T12:01:46;101113.91;;;10.01;100.00
69060;BME280;56135;37.534;-122.308;2022-09-20T12:04:24;101111.28;;;10.00;100.00
69060;BME280;56135;37.534;-122.308;2022-09-20T12:09:42;101111.25;;;9.98;100.00
69060;BME280;56135;37.534;-122.308;2022-09-20T12:14:55;101112.13;;;9.96;100.00
69060;BME280;56135;37.534;-122.308;2022-09-20T12:28:37;101116.56;;;9.89;100.00
69060;BME280;56135;37.534;-122.308;2022-09-20T12:36:33;101110.44;;;9.82;100.00
69060;BME280;56135;37.534;-122.308;2022-09-20T12:44:38;101113.97;;;9.81;100.00
69060;BME280;56135;37.534;-122.308;2022-09-20T12:55:26;101108.69;;;9.80;100.00
69060;BME280;56135;37.534;-122.308;2022-09-20T13:00:35;101117.50;;;9.79;100.00
69060;BME280;56135;37.534;-122.308;2022-09-20T13:03:11;101121.03;;;9.78;100.00
69060;BME280;56135;37.534;-122.308;2022-09-20T13:05:40;101121.91;;;9.75;100.00
69060;BME280;56135;37.534;-122.308;2022-09-20T13:08:24;101127.19;;;9.74;100.00
69060;BME280;56135;37.534;-122.308;2022-09-20T13:14:28;101129.81;;;9.75;100.00
69060;BME280;56135;37.534;-122.308;2022-09-20T13:16:55;101136.88;;;9.76;100.00
69060;BME280;56135;37.534;-122.308;2022-09-20T13:22:08;101142.13;;;9.75;100.00
69060;BME280;56135;37.534;-122.308;2022-09-20T13:24:40;101140.38;;;9.77;100.00
69060;BME280;56135;37.534;-122.308;2022-09-20T13:27:16;101134.22;;;9.78;100.00
69060;BME280;56135;37.534;-122.308;2022-09-20T13:29:44;101130.69;;;9.79;100.00
69060;BME280;56135;37.534;-122.308;2022-09-20T13:32:23;101135.09;;;9.78;100.00
69060;BME280;56135;37.534;-122.308;2022-09-20T13:38:02;101143.88;;;9.77;100.00
69060;BME280;56135;37.534;-122.308;2022-09-20T13:40:32;101145.66;;;9.75;100.00
69060;BME280;56135;37.534;-122.308;2022-09-20T13:43:04;101145.66;;;9.77;100.00
69060;BME280;56135;37.534;-122.308;2022-09-20T13:45:31;101157.97;;;9.76;100.00
69060;BME280;56135;37.534;-122.308;2022-09-20T13:47:58;101152.66;;;9.75;100.00
69060;BME280;56135;37.534;-122.308;2022-09-20T13:52:58;101153.56;;;9.77;100.00
69060;BME280;56135;37.534;-122.308;2022-09-20T13:55:33;101156.19;;;9.78;100.00
69060;BME280;56135;37.534;-122.308;2022-09-20T13:58:15;101158.84;;;9.83;100.00
69060;BME280;56135;37.534;-122.308;2022-09-20T14:00:54;101150.00;;;9.84;100.00
69060;BME280;56135;37.534;-122.308;2022-09-20T14:03:21;101158.78;;;9.89;100.00
69060;BME280;56135;37.534;-122.308;2022-09-20T14:05:54;101157.03;;;9.93;100.00
69060;BME280;56135;37.534;-122.308;2022-09-20T14:08:27;101162.28;;;9.99;100.00
69060;BME280;56135;37.534;-122.308;2022-09-20T14:11:18;101153.44;;;10.06;100.00
69060;BME280;56135;37.534;-122.308;2022-09-20T14:14:04;101157.84;;;10.10;100.00
69060;BME280;56135;37.534;-122.308;2022-09-20T14:16:40;101156.94;;;10.19;100.00
69060;BME280;56135;37.534;-122.308;2022-09-20T14:19:21;101156.00;;;10.26;100.00
69060;BME280;56135;37.534;-122.308;2022-09-20T14:21:48;101153.34;;;10.32;100.00
69060;BME280;56135;37.534;-122.308;2022-09-20T14:24:25;101163.03;;;10.41;100.00
69060;BME280;56135;37.534;-122.308;2022-09-20T14:27:02;101159.47;;;10.47;100.00
69060;BME280;56135;37.534;-122.308;2022-09-20T14:29:41;101170.81;;;10.58;100.00
69060;BME280;56135;37.534;-122.308;2022-09-20T14:37:26;101166.19;;;10.94;100.00
69060;BME280;56135;37.534;-122.308;2022-09-20T14:39:59;101166.03;;;11.11;100.00
69060;BME280;56135;37.534;-122.308;2022-09-20T14:42:30;101165.06;;;11.26;100.00
69060;BME280;56135;37.534;-122.308;2022-09-20T14:44:59;101158.72;;;11.46;100.00
69060;BME280;56135;37.534;-122.308;2022-09-20T14:47:35;101149.69;;;11.64;100.00
69060;BME280;56135;37.534;-122.308;2022-09-20T14:50:20;101151.28;;;11.80;100.00
69060;BME280;56135;37.534;-122.308;2022-09-20T14:53:43;101158.09;;;12.03;100.00
69060;BME280;56135;37.534;-122.308;2022-09-20T14:56:10;101160.44;;;12.26;100.00
69060;BME280;56135;37.534;-122.308;2022-09-20T15:01:29;101164.31;;;12.66;100.00
69060;BME280;56135;37.534;-122.308;2022-09-20T15:03:56;101163.16;;;12.85;100.00
69060;BME280;56135;37.534;-122.308;2022-09-20T15:06:23;101164.59;;;13.04;100.00
69060;BME280;56135;37.534;-122.308;2022-09-20T15:08:50;101171.50;;;13.15;100.00
69060;BME280;56135;37.534;-122.308;2022-09-20T15:11:17;101168.72;;;13.23;100.00
69060;BME280;56135;37.534;-122.308;2022-09-20T15:13:44;101169.47;;;13.30;100.00
69060;BME280;56135;37.534;-122.308;2022-09-20T15:16:16;101168.50;;;13.39;100.00
69060;BME280;56135;37.534;-122.308;2022-09-20T15:18:45;101176.03;;;13.62;100.00
69060;BME280;56135;37.534;-122.308;2022-09-20T15:21:11;101177.53;;;13.77;100.00
69060;BME280;56135;37.534;-122.308;2022-09-20T15:23:38;101180.94;;;13.83;100.00
69060;BME280;56135;37.534;-122.308;2022-09-20T15:26:05;101174.59;;;13.91;100.00
69060;BME280;56135;37.534;-122.308;2022-09-20T15:28:34;101173.53;;;13.99;100.00
69060;BME280;56135;37.534;-122.308;2022-09-20T15:31:01;101178.59;;;14.12;100.00
69060;BME280;56135;37.534;-122.308;2022-09-20T15:33:29;101179.84;;;14.38;100.00
69060;BME280;56135;37.534;-122.308;2022-09-20T15:35:57;101180.16;;;14.64;100.00
69060;BME280;56135;37.534;-122.308;2022-09-20T15:38:23;101170.50;;;14.98;100.00
69060;BME280;56135;37.534;-122.308;2022-09-20T15:40:51;101171.44;;;15.31;100.00
69060;BME280;56135;37.534;-122.308;2022-09-20T15:43:22;101172.88;;;15.78;100.00
69060;BME280;56135;37.534;-122.308;2022-09-20T15:45:55;101169.19;;;16.15;100.00
69060;BME280;56135;37.534;-122.308;2022-09-20T15:48:24;101164.06;;;16.39;100.00
69060;BME280;56135;37.534;-122.308;2022-09-20T15:53:25;101159.22;;;16.80;100.00
69060;BME280;56135;37.534;-122.308;2022-09-20T15:55:51;101149.16;;;16.90;100.00
69060;BME280;56135;37.534;-122.308;2022-09-20T15:58:17;101161.13;;;17.05;100.00
69060;BME280;56135;37.534;-122.308;2022-09-20T16:00:43;101150.56;;;17.28;100.00
69060;BME280;56135;37.534;-122.308;2022-09-20T16:03:10;101152.25;;;17.56;100.00
69060;BME280;56135;37.534;-122.308;2022-09-20T16:05:36;101157.47;;;17.84;100.00
69060;BME280;56135;37.534;-122.308;2022-09-20T16:08:02;101157.22;;;18.16;93.41
69060;BME280;56135;37.534;-122.308;2022-09-20T16:10:28;101167.06;;;18.61;87.34
69060;BME280;56135;37.534;-122.308;2022-09-20T16:12:55;101156.09;;;18.91;82.67
69060;BME280;56135;37.534;-122.308;2022-09-20T16:15:22;101160.34;;;19.17;82.81
69060;BME280;56135;37.534;-122.308;2022-09-20T16:17:48;101154.16;;;19.58;81.47
69060;BME280;56135;37.534;-122.308;2022-09-20T16:20:32;101158.06;;;20.11;75.29
69060;BME280;56135;37.534;-122.308;2022-09-20T16:22:58;101163.91;;;20.77;73.47
69060;BME280;56135;37.534;-122.308;2022-09-20T16:25:24;101160.16;;;21.53;70.22
69060;BME280;56135;37.534;-122.308;2022-09-20T16:27:50;101163.38;;;22.10;61.50
69060;BME280;56135;37.534;-122.308;2022-09-20T16:30:16;101169.78;;;22.57;59.37
69060;BME280;56135;37.534;-122.308;2022-09-20T16:32:43;101162.31;;;23.70;54.75
69060;BME280;56135;37.534;-122.308;2022-09-20T16:35:10;101172.16;;;23.10;53.64
69060;BME280;56135;37.534;-122.308;2022-09-20T16:37:37;101166.75;;;23.71;52.22
69060;BME280;56135;37.534;-122.308;2022-09-20T16:40:04;101172.38;;;24.25;50.68
69060;BME280;56135;37.534;-122.308;2022-09-20T16:42:30;101164.91;;;25.40;47.82
69060;BME280;56135;37.534;-122.308;2022-09-20T16:44:57;101162.34;;;25.51;46.26
69060;BME280;56135;37.534;-122.308;2022-09-20T16:47:23;101172.31;;;25.51;44.99
69060;BME280;56135;37.534;-122.308;2022-09-20T16:49:49;101175.69;;;26.06;44.98
69060;BME280;56135;37.534;-122.308;2022-09-20T16:52:18;101177.63;;;26.17;44.69
69060;BME280;56135;37.534;-122.308;2022-09-20T16:54:45;101172.94;;;25.41;45.77
69060;BME280;56135;37.534;-122.308;2022-09-20T16:57:11;101170.16;;;25.81;44.25
69060;BME280;56135;37.534;-122.308;2022-09-20T16:59:39;101167.84;;;26.40;44.30
69060;BME280;56135;37.534;-122.308;2022-09-20T17:02:07;101173.03;;;26.67;42.63
69060;BME280;56135;37.534;-122.308;2022-09-20T17:04:34;101177.59;;;26.29;43.57
69060;BME280;56135;37.534;-122.308;2022-09-20T17:07:00;101185.22;;;26.61;42.87
69060;BME280;56135;37.534;-122.308;2022-09-20T17:09:26;101184.94;;;26.90;42.77
69060;BME280;56135;37.534;-122.308;2022-09-20T17:11:53;101185.63;;;26.81;43.23
69060;BME280;56135;37.534;-122.308;2022-09-20T17:14:19;101184.47;;;26.96;41.48
69060;BME280;56135;37.534;-122.308;2022-09-20T17:16:46;101184.06;;;27.14;41.39
69060;BME280;56135;37.534;-122.308;2022-09-20T17:19:16;101181.06;;;28.00;39.21
69060;BME280;56135;37.534;-122.308;2022-09-20T17:21:44;101177.94;;;27.70;39.05
69060;BME280;56135;37.534;-122.308;2022-09-20T17:24:15;101186.66;;;26.91;40.77
69060;BME280;56135;37.534;-122.308;2022-09-20T17:26:43;101183.16;;;26.65;41.08
69060;BME280;56135;37.534;-122.308;2022-09-20T17:29:12;101168.66;;;27.50;40.67
69060;BME280;56135;37.534;-122.308;2022-09-20T17:31:41;101171.38;;;27.39;40.30
69060;BME280;56135;37.534;-122.308;2022-09-20T17:34:10;101172.28;;;27.02;40.94
69060;BME280;56135;37.534;-122.308;2022-09-20T17:36:39;101180.66;;;26.25;41.70
69060;BME280;56135;37.534;-122.308;2022-09-20T17:39:07;101177.47;;;26.44;41.82
69060;BME280;56135;37.534;-122.308;2022-09-20T17:41:42;101176.97;;;27.36;40.80
69060;BME280;56135;37.534;-122.308;2022-09-20T17:44:09;101184.31;;;28.16;38.16